UAE9658 HKJK-FAOR
Flight info
| Callsign | UAE9658 |
|---|---|
| Flight time | N/A |
| Altitude | 40000 |
| Route | EVATO1X EVATO DCT LOSIN DCT ETMOV DCT AVETA DCT ITSOK DCT ITNOV DCT OKMAS DCT DO/N0482F390 DCT BONAP/N0480F400 UM310 VBR UM307 EPSEK UZ33 NESAG UZ7 OKPIT OKPIT1C |
| Aircraft | B772/H-SDE2E3FGHIJ5LORVWXY/LB1D1 |
Departure
| Time | 2026-04-29 08:06 |
|---|---|
| Airport | Jomo Kenyatta International Airport (HKJK) |
Arrival
| Time | N/A |
|---|---|
| Airport | O.R. Tambo International Airport (FAOR) |
| Time | Latitude | Longitude | Altitude | Speed | Heading |
|---|---|---|---|---|---|
| 2026-04-29 08:06 | -1.29800 | 36.96706 | 6508 ft | 212 kts | 105° |
| 2026-04-29 08:06 | -1.30565 | 36.98012 | 6644 ft | 238 kts | 143° |
| 2026-04-29 08:06 | -1.32174 | 36.98640 | 6828 ft | 264 kts | 172° |
| 2026-04-29 08:06 | -1.34056 | 36.98876 | 7361 ft | 278 kts | 173° |
| 2026-04-29 08:07 | -1.36006 | 36.99169 | 8164 ft | 287 kts | 170° |
| 2026-04-29 08:07 | -1.37973 | 36.99535 | 9117 ft | 284 kts | 169° |
| 2026-04-29 08:07 | -1.39869 | 36.99916 | 9774 ft | 281 kts | 168° |
| 2026-04-29 08:07 | -1.41818 | 37.00319 | 9822 ft | 295 kts | 168° |
| 2026-04-29 08:08 | -1.43858 | 37.00743 | 10040 ft | 301 kts | 168° |
| 2026-04-29 08:08 | -1.45909 | 37.01170 | 10606 ft | 301 kts | 168° |
| 2026-04-29 08:08 | -1.47967 | 37.01598 | 11142 ft | 302 kts | 168° |
| 2026-04-29 08:08 | -1.50034 | 37.02028 | 11622 ft | 305 kts | 168° |
| 2026-04-29 08:09 | -1.52140 | 37.02261 | 12026 ft | 308 kts | 185° |
| 2026-04-29 08:09 | -1.54200 | 37.01679 | 12462 ft | 311 kts | 208° |
| 2026-04-29 08:09 | -1.55956 | 37.00425 | 12977 ft | 312 kts | 223° |
| 2026-04-29 08:09 | -1.57455 | 36.98835 | 13483 ft | 316 kts | 233° |
| 2026-04-29 08:10 | -1.58459 | 36.96938 | 13888 ft | 316 kts | 252° |
| 2026-04-29 08:10 | -1.59102 | 36.94815 | 14197 ft | 320 kts | 254° |
| 2026-04-29 08:10 | -1.59747 | 36.92679 | 14511 ft | 323 kts | 252° |
| 2026-04-29 08:10 | -1.60472 | 36.90516 | 14724 ft | 337 kts | 252° |
| 2026-04-29 08:11 | -1.61235 | 36.88238 | 14844 ft | 354 kts | 252° |
| 2026-04-29 08:11 | -1.62018 | 36.85840 | 14966 ft | 372 kts | 252° |
| 2026-04-29 08:11 | -1.62870 | 36.83349 | 15043 ft | 383 kts | 245° |
| 2026-04-29 08:11 | -1.64371 | 36.81099 | 15160 ft | 399 kts | 227° |
| 2026-04-29 08:12 | -1.66464 | 36.79243 | 15437 ft | 409 kts | 212° |
| 2026-04-29 08:12 | -1.68954 | 36.77890 | 15849 ft | 416 kts | 205° |
| 2026-04-29 08:12 | -1.71602 | 36.76697 | 16442 ft | 419 kts | 203° |
| 2026-04-29 08:12 | -1.74251 | 36.75535 | 16881 ft | 415 kts | 204° |
| 2026-04-29 08:13 | -1.76881 | 36.74312 | 16986 ft | 420 kts | 206° |
| 2026-04-29 08:13 | -1.79495 | 36.72964 | 17096 ft | 427 kts | 207° |
| 2026-04-29 08:13 | -1.82111 | 36.71551 | 17802 ft | 426 kts | 208° |
| 2026-04-29 08:13 | -1.84723 | 36.70138 | 18428 ft | 429 kts | 208° |
| 2026-04-29 08:14 | -1.87365 | 36.68733 | 18925 ft | 433 kts | 207° |
| 2026-04-29 08:14 | -1.90046 | 36.67334 | 19440 ft | 436 kts | 207° |
| 2026-04-29 08:14 | -1.92750 | 36.65941 | 19979 ft | 438 kts | 206° |
| 2026-04-29 08:14 | -1.95470 | 36.64553 | 20528 ft | 441 kts | 206° |
| 2026-04-29 08:15 | -1.98175 | 36.63178 | 21059 ft | 443 kts | 206° |
| 2026-04-29 08:15 | -2.00933 | 36.61776 | 21571 ft | 446 kts | 206° |
| 2026-04-29 08:15 | -2.03710 | 36.60363 | 22062 ft | 449 kts | 206° |
| 2026-04-29 08:15 | -2.06505 | 36.58938 | 22521 ft | 453 kts | 206° |
| 2026-04-29 08:16 | -2.09320 | 36.57502 | 22986 ft | 456 kts | 206° |
| 2026-04-29 08:16 | -2.12095 | 36.56085 | 23416 ft | 458 kts | 206° |
| 2026-04-29 08:16 | -2.12104 | 36.56081 | 23416 ft | 458 kts | 206° |
| 2026-04-29 08:16 | -2.14884 | 36.54661 | 23792 ft | 461 kts | 206° |
| 2026-04-29 08:17 | -2.17710 | 36.53217 | 24163 ft | 463 kts | 206° |
| 2026-04-29 08:17 | -2.20582 | 36.51750 | 24541 ft | 464 kts | 206° |
| 2026-04-29 08:17 | -2.23466 | 36.50277 | 24887 ft | 467 kts | 206° |
| 2026-04-29 08:17 | -2.26365 | 36.48796 | 25202 ft | 469 kts | 206° |
| 2026-04-29 08:18 | -2.29279 | 36.47308 | 25514 ft | 472 kts | 206° |
| 2026-04-29 08:18 | -2.32210 | 36.45811 | 25835 ft | 474 kts | 206° |
| 2026-04-29 08:18 | -2.35163 | 36.44333 | 26150 ft | 476 kts | 205° |
| 2026-04-29 08:18 | -2.38171 | 36.42938 | 26454 ft | 477 kts | 203° |
| 2026-04-29 08:19 | -2.41184 | 36.41639 | 26734 ft | 479 kts | 201° |
| 2026-04-29 08:19 | -2.44282 | 36.40395 | 27014 ft | 481 kts | 200° |
| 2026-04-29 08:19 | -2.47415 | 36.39198 | 27304 ft | 483 kts | 199° |
| 2026-04-29 08:19 | -2.50556 | 36.38004 | 27560 ft | 485 kts | 200° |
| 2026-04-29 08:20 | -2.53718 | 36.36777 | 27800 ft | 488 kts | 200° |
| 2026-04-29 08:20 | -2.56873 | 36.35519 | 28056 ft | 489 kts | 201° |
| 2026-04-29 08:20 | -2.60032 | 36.34231 | 28290 ft | 491 kts | 201° |
| 2026-04-29 08:20 | -2.63196 | 36.32923 | 28528 ft | 493 kts | 201° |
| 2026-04-29 08:21 | -2.66362 | 36.31606 | 28731 ft | 494 kts | 201° |
| 2026-04-29 08:21 | -2.68466 | 36.30730 | 28871 ft | 496 kts | 201° |
| 2026-04-29 08:21 | -2.72260 | 36.29153 | 29098 ft | 497 kts | 201° |
| 2026-04-29 08:22 | -2.75464 | 36.27825 | 29279 ft | 499 kts | 201° |
| 2026-04-29 08:22 | -2.78672 | 36.26500 | 29451 ft | 500 kts | 201° |
| 2026-04-29 08:22 | -2.81896 | 36.25170 | 29602 ft | 502 kts | 201° |
| 2026-04-29 08:22 | -2.85132 | 36.23835 | 29733 ft | 504 kts | 201° |
| 2026-04-29 08:23 | -2.88376 | 36.22497 | 29892 ft | 505 kts | 201° |
| 2026-04-29 08:23 | -2.91628 | 36.21154 | 30081 ft | 505 kts | 201° |
| 2026-04-29 08:23 | -2.94827 | 36.19833 | 30292 ft | 504 kts | 201° |
| 2026-04-29 08:23 | -2.98069 | 36.18493 | 30504 ft | 503 kts | 201° |
| 2026-04-29 08:24 | -3.01304 | 36.17157 | 30698 ft | 502 kts | 201° |
| 2026-04-29 08:24 | -3.04532 | 36.15823 | 30916 ft | 502 kts | 201° |
| 2026-04-29 08:24 | -3.07751 | 36.14493 | 31113 ft | 501 kts | 201° |
| 2026-04-29 08:24 | -3.10985 | 36.13200 | 31313 ft | 500 kts | 199° |
| 2026-04-29 08:25 | -3.14262 | 36.12081 | 31508 ft | 493 kts | 195° |
| 2026-04-29 08:25 | -3.17566 | 36.11273 | 31478 ft | 487 kts | 187° |
| 2026-04-29 08:25 | -3.24348 | 36.10931 | 31535 ft | 487 kts | 180° |
| 2026-04-29 08:26 | -3.29925 | 36.10618 | 31526 ft | 481 kts | 186° |
| 2026-04-29 08:26 | -3.34056 | 36.09991 | 31576 ft | 487 kts | 188° |
| 2026-04-29 08:27 | -3.40789 | 36.08852 | 31641 ft | 495 kts | 187° |
| 2026-04-29 08:27 | -3.47629 | 36.07904 | 31885 ft | 496 kts | 186° |
| 2026-04-29 08:28 | -3.51047 | 36.07489 | 32125 ft | 494 kts | 185° |
| 2026-04-29 08:28 | -3.54408 | 36.07089 | 32379 ft | 491 kts | 185° |
| 2026-04-29 08:28 | -3.57796 | 36.06681 | 32588 ft | 490 kts | 185° |
| 2026-04-29 08:28 | -3.61185 | 36.06261 | 32743 ft | 490 kts | 186° |
| 2026-04-29 08:29 | -3.64570 | 36.05835 | 32895 ft | 491 kts | 186° |
| 2026-04-29 08:29 | -3.67952 | 36.05407 | 33075 ft | 490 kts | 186° |
| 2026-04-29 08:29 | -3.71328 | 36.04985 | 33292 ft | 488 kts | 185° |
| 2026-04-29 08:29 | -3.74692 | 36.04573 | 33529 ft | 486 kts | 185° |
| 2026-04-29 08:30 | -3.78047 | 36.04165 | 33703 ft | 486 kts | 185° |
| 2026-04-29 08:30 | -3.84709 | 36.03358 | 34008 ft | 485 kts | 185° |
| 2026-04-29 08:30 | -3.88059 | 36.02952 | 34149 ft | 484 kts | 185° |
| 2026-04-29 08:31 | -3.91400 | 36.02545 | 34298 ft | 484 kts | 185° |
| 2026-04-29 08:31 | -3.94758 | 36.02135 | 34442 ft | 483 kts | 185° |
| 2026-04-29 08:31 | -3.98094 | 36.01727 | 34623 ft | 483 kts | 185° |
| 2026-04-29 08:32 | -4.01429 | 36.01320 | 34741 ft | 483 kts | 185° |
| 2026-04-29 08:32 | -4.04759 | 36.00913 | 34916 ft | 481 kts | 185° |
| 2026-04-29 08:32 | -4.08036 | 36.00512 | 35083 ft | 480 kts | 185° |
| 2026-04-29 08:32 | -4.11266 | 36.00117 | 35230 ft | 480 kts | 185° |
| 2026-04-29 08:33 | -4.14575 | 35.99712 | 35333 ft | 480 kts | 185° |
| 2026-04-29 08:33 | -4.17901 | 35.99306 | 35462 ft | 480 kts | 185° |
| 2026-04-29 08:33 | -4.21211 | 35.98901 | 35613 ft | 479 kts | 185° |
| 2026-04-29 08:33 | -4.24518 | 35.98497 | 35761 ft | 478 kts | 185° |
| 2026-04-29 08:34 | -4.27817 | 35.98094 | 35894 ft | 478 kts | 185° |
| 2026-04-29 08:34 | -4.31123 | 35.97689 | 36008 ft | 479 kts | 185° |
| 2026-04-29 08:34 | -4.34385 | 35.97291 | 36154 ft | 478 kts | 185° |
| 2026-04-29 08:34 | -4.37677 | 35.96888 | 36341 ft | 476 kts | 185° |
| 2026-04-29 08:35 | -4.40961 | 35.96486 | 36468 ft | 475 kts | 185° |
| 2026-04-29 08:35 | -4.44241 | 35.96085 | 36590 ft | 476 kts | 185° |
| 2026-04-29 08:35 | -4.47527 | 35.95683 | 36707 ft | 475 kts | 185° |
| 2026-04-29 08:35 | -4.50793 | 35.95282 | 36933 ft | 472 kts | 185° |
| 2026-04-29 08:36 | -4.54043 | 35.94878 | 37263 ft | 467 kts | 185° |
| 2026-04-29 08:36 | -4.54314 | 35.94845 | 37300 ft | 0 kts | 185° |
| 2026-04-29 08:36 | -4.54314 | 35.94846 | 37303 ft | 0 kts | 185° |
| 2026-04-29 08:37 | -4.55002 | 35.94778 | 37229 ft | 468 kts | 184° |
| 2026-04-29 08:37 | -4.58245 | 35.94418 | 37303 ft | 468 kts | 185° |
| 2026-04-29 08:37 | -4.61464 | 35.94015 | 37506 ft | 465 kts | 186° |
| 2026-04-29 08:38 | -4.64675 | 35.93596 | 37627 ft | 465 kts | 186° |
| 2026-04-29 08:38 | -4.71108 | 35.92758 | 37732 ft | 468 kts | 186° |
| 2026-04-29 08:39 | -4.77543 | 35.91944 | 37829 ft | 469 kts | 185° |
| 2026-04-29 08:39 | -4.80774 | 35.91542 | 37930 ft | 469 kts | 185° |
| 2026-04-29 08:39 | -4.84017 | 35.91139 | 37983 ft | 469 kts | 185° |
| 2026-04-29 08:40 | -4.90514 | 35.90334 | 38049 ft | 471 kts | 185° |
| 2026-04-29 08:40 | -4.97013 | 35.89525 | 38314 ft | 470 kts | 185° |
| 2026-04-29 08:40 | -5.00256 | 35.89120 | 38446 ft | 469 kts | 185° |
| 2026-04-29 08:41 | -5.03453 | 35.88722 | 38473 ft | 470 kts | 185° |
| 2026-04-29 08:41 | -5.06691 | 35.88318 | 38476 ft | 471 kts | 185° |
| 2026-04-29 08:42 | -5.13210 | 35.87505 | 38507 ft | 472 kts | 185° |
| 2026-04-29 08:42 | -5.19694 | 35.86697 | 38592 ft | 472 kts | 185° |
| 2026-04-29 08:43 | -5.26219 | 35.85883 | 38650 ft | 473 kts | 185° |
| 2026-04-29 08:43 | -5.32737 | 35.85069 | 38763 ft | 472 kts | 185° |
| 2026-04-29 08:44 | -5.39263 | 35.84256 | 38774 ft | 473 kts | 185° |
| 2026-04-29 08:44 | -5.45804 | 35.83442 | 38804 ft | 474 kts | 185° |
| 2026-04-29 08:45 | -5.52301 | 35.82633 | 38840 ft | 474 kts | 185° |
| 2026-04-29 08:45 | -5.58853 | 35.81817 | 38870 ft | 474 kts | 185° |
| 2026-04-29 08:46 | -5.65401 | 35.81000 | 38950 ft | 474 kts | 185° |
| 2026-04-29 08:46 | -5.68801 | 35.80580 | 38953 ft | 474 kts | 185° |
| 2026-04-29 08:47 | -5.75343 | 35.79782 | 39014 ft | 474 kts | 185° |
| 2026-04-29 08:47 | -5.81852 | 35.78989 | 39046 ft | 475 kts | 185° |
| 2026-04-29 08:48 | -5.88404 | 35.78189 | 39108 ft | 475 kts | 185° |
| 2026-04-29 08:48 | -5.94959 | 35.77387 | 39197 ft | 474 kts | 185° |
| 2026-04-29 08:48 | -5.98211 | 35.76988 | 39413 ft | 469 kts | 185° |
| 2026-04-29 08:49 | -6.01438 | 35.76593 | 39630 ft | 465 kts | 185° |
| 2026-04-29 08:49 | -6.04634 | 35.76203 | 39837 ft | 461 kts | 185° |
| 2026-04-29 08:49 | -6.07784 | 35.75819 | 39730 ft | 465 kts | 185° |
| 2026-04-29 08:49 | -6.11011 | 35.75425 | 39605 ft | 469 kts | 185° |
| 2026-04-29 08:50 | -6.14263 | 35.75129 | 39481 ft | 471 kts | 181° |
| 2026-04-29 08:50 | -6.20714 | 35.75763 | 39395 ft | 466 kts | 160° |
| 2026-04-29 08:51 | -6.26658 | 35.78281 | 39288 ft | 463 kts | 157° |
| 2026-04-29 08:51 | -6.29730 | 35.79499 | 39230 ft | 463 kts | 160° |
| 2026-04-29 08:52 | -6.35823 | 35.81476 | 39125 ft | 465 kts | 162° |
| 2026-04-29 08:52 | -6.42003 | 35.83412 | 39136 ft | 466 kts | 161° |
| 2026-04-29 08:53 | -6.48162 | 35.85458 | 39154 ft | 467 kts | 161° |
| 2026-04-29 08:53 | -6.54264 | 35.87561 | 39170 ft | 467 kts | 160° |
| 2026-04-29 08:54 | -6.60413 | 35.89699 | 39186 ft | 468 kts | 160° |
| 2026-04-29 08:54 | -6.66570 | 35.91834 | 39201 ft | 468 kts | 160° |
| 2026-04-29 08:55 | -6.72735 | 35.93965 | 39220 ft | 469 kts | 160° |
| 2026-04-29 08:55 | -6.78869 | 35.96084 | 39231 ft | 469 kts | 161° |
| 2026-04-29 08:56 | -6.85049 | 35.98220 | 39255 ft | 470 kts | 161° |
| 2026-04-29 08:56 | -6.88197 | 35.99307 | 39261 ft | 470 kts | 161° |
| 2026-04-29 08:57 | -6.94384 | 36.01446 | 39288 ft | 470 kts | 161° |
| 2026-04-29 08:57 | -7.00530 | 36.03571 | 39310 ft | 470 kts | 161° |
| 2026-04-29 08:58 | -7.06722 | 36.05714 | 39327 ft | 471 kts | 161° |
| 2026-04-29 08:58 | -7.12920 | 36.07858 | 39346 ft | 471 kts | 160° |
| 2026-04-29 08:59 | -7.19126 | 36.10007 | 39374 ft | 472 kts | 160° |
| 2026-04-29 08:59 | -7.25296 | 36.12143 | 39403 ft | 472 kts | 160° |
| 2026-04-29 09:00 | -7.31514 | 36.14296 | 39415 ft | 473 kts | 160° |
| 2026-04-29 09:00 | -7.37733 | 36.16450 | 39470 ft | 472 kts | 160° |
| 2026-04-29 09:01 | -7.43943 | 36.18601 | 39551 ft | 472 kts | 160° |
| 2026-04-29 09:01 | -7.46982 | 36.19655 | 39569 ft | 471 kts | 160° |
| 2026-04-29 09:02 | -7.53173 | 36.21803 | 39612 ft | 472 kts | 160° |
| 2026-04-29 09:02 | -7.59381 | 36.23956 | 39677 ft | 471 kts | 160° |
| 2026-04-29 09:03 | -7.65572 | 36.26104 | 39677 ft | 472 kts | 160° |
| 2026-04-29 09:03 | -7.71740 | 36.28243 | 39696 ft | 472 kts | 160° |
| 2026-04-29 09:04 | -7.77950 | 36.30399 | 39714 ft | 472 kts | 160° |
| 2026-04-29 09:04 | -7.84157 | 36.32556 | 39751 ft | 472 kts | 160° |
| 2026-04-29 09:05 | -7.90366 | 36.34713 | 39741 ft | 472 kts | 160° |
| 2026-04-29 09:05 | -7.96533 | 36.36856 | 39722 ft | 473 kts | 160° |
| 2026-04-29 09:06 | -8.02757 | 36.39019 | 39726 ft | 473 kts | 160° |
| 2026-04-29 09:06 | -8.06041 | 36.40161 | 39735 ft | 473 kts | 160° |
| 2026-04-29 09:07 | -8.12273 | 36.42328 | 39719 ft | 474 kts | 160° |
| 2026-04-29 09:07 | -8.18504 | 36.44494 | 39726 ft | 474 kts | 160° |
| 2026-04-29 09:08 | -8.24694 | 36.46648 | 39735 ft | 474 kts | 160° |
| 2026-04-29 09:08 | -8.30927 | 36.48818 | 39752 ft | 474 kts | 160° |
| 2026-04-29 09:09 | -8.37159 | 36.50988 | 39759 ft | 474 kts | 160° |
| 2026-04-29 09:09 | -8.43393 | 36.53159 | 39784 ft | 474 kts | 160° |
| 2026-04-29 09:10 | -8.49588 | 36.55318 | 39788 ft | 474 kts | 160° |
| 2026-04-29 09:10 | -8.55824 | 36.57492 | 39792 ft | 474 kts | 160° |
| 2026-04-29 09:11 | -8.62047 | 36.59663 | 39812 ft | 474 kts | 160° |
| 2026-04-29 09:11 | -8.65201 | 36.60763 | 39806 ft | 475 kts | 160° |
| 2026-04-29 09:12 | -8.71428 | 36.62935 | 39960 ft | 471 kts | 160° |
| 2026-04-29 09:12 | -8.77571 | 36.65078 | 40043 ft | 469 kts | 160° |
| 2026-04-29 09:13 | -8.83745 | 36.67234 | 40053 ft | 470 kts | 160° |
| 2026-04-29 09:13 | -8.89927 | 36.69395 | 40048 ft | 471 kts | 160° |
| 2026-04-29 09:14 | -8.96123 | 36.71560 | 40050 ft | 471 kts | 160° |
| 2026-04-29 09:14 | -9.02289 | 36.73714 | 40051 ft | 472 kts | 160° |
| 2026-04-29 09:15 | -9.08498 | 36.75884 | 40043 ft | 473 kts | 160° |
| 2026-04-29 09:15 | -9.15055 | 36.78177 | 40042 ft | 473 kts | 160° |
| 2026-04-29 09:16 | -9.21283 | 36.80357 | 40041 ft | 474 kts | 160° |
| 2026-04-29 09:16 | -9.24168 | 36.81366 | 40042 ft | 474 kts | 160° |
| 2026-04-29 09:17 | -9.30407 | 36.83551 | 40041 ft | 475 kts | 160° |
| 2026-04-29 09:17 | -9.36609 | 36.85723 | 40033 ft | 475 kts | 160° |
| 2026-04-29 09:18 | -9.42851 | 36.87910 | 40042 ft | 475 kts | 160° |
| 2026-04-29 09:18 | -9.49105 | 36.90101 | 40034 ft | 475 kts | 160° |
| 2026-04-29 09:19 | -9.55357 | 36.92293 | 40031 ft | 476 kts | 160° |
| 2026-04-29 09:19 | -9.61615 | 36.94487 | 40025 ft | 476 kts | 160° |
| 2026-04-29 09:20 | -9.67830 | 36.96669 | 40022 ft | 476 kts | 160° |
| 2026-04-29 09:20 | -9.74095 | 36.98868 | 40018 ft | 476 kts | 160° |
| 2026-04-29 09:21 | -9.80357 | 37.01067 | 40019 ft | 477 kts | 160° |
| 2026-04-29 09:21 | -9.82885 | 37.01955 | 40022 ft | 477 kts | 160° |
| 2026-04-29 09:22 | -9.89117 | 37.04145 | 40025 ft | 477 kts | 160° |
| 2026-04-29 09:22 | -9.95391 | 37.06350 | 40023 ft | 478 kts | 160° |
| 2026-04-29 09:23 | -10.01668 | 37.08558 | 40032 ft | 478 kts | 160° |
| 2026-04-29 09:23 | -10.07959 | 37.10770 | 40033 ft | 478 kts | 159° |
| 2026-04-29 09:24 | -10.14254 | 37.12986 | 40035 ft | 478 kts | 160° |
| 2026-04-29 09:24 | -10.20500 | 37.15186 | 40037 ft | 479 kts | 159° |
| 2026-04-29 09:25 | -10.26784 | 37.17399 | 40041 ft | 478 kts | 159° |
| 2026-04-29 09:25 | -10.33078 | 37.19616 | 40041 ft | 479 kts | 159° |
| 2026-04-29 09:26 | -10.39370 | 37.21835 | 40044 ft | 479 kts | 159° |
| 2026-04-29 09:26 | -10.42612 | 37.22979 | 40043 ft | 479 kts | 160° |
| 2026-04-29 09:27 | -10.48826 | 37.25170 | 40036 ft | 479 kts | 160° |
| 2026-04-29 09:27 | -10.51064 | 37.25959 | 40035 ft | 479 kts | 159° |
| 2026-04-29 09:28 | -10.55413 | 37.27494 | 40033 ft | 480 kts | 160° |
| 2026-04-29 09:28 | -10.58248 | 37.28496 | 40044 ft | 480 kts | 159° |
| 2026-04-29 09:29 | -10.63180 | 37.30238 | 40043 ft | 480 kts | 159° |
| 2026-04-29 09:29 | -10.72642 | 37.33580 | 40039 ft | 480 kts | 160° |
| 2026-04-29 09:30 | -10.78956 | 37.35812 | 40044 ft | 481 kts | 159° |
| 2026-04-29 09:30 | -10.84206 | 37.37669 | 40045 ft | 481 kts | 159° |
| 2026-04-29 09:31 | -10.90527 | 37.39906 | 40035 ft | 481 kts | 160° |
| 2026-04-29 09:31 | -10.91184 | 37.40138 | 40038 ft | 481 kts | 159° |
| 2026-04-29 09:32 | -10.97042 | 37.42212 | 40040 ft | 482 kts | 159° |
| 2026-04-29 09:32 | -11.03369 | 37.44452 | 40042 ft | 482 kts | 159° |
| 2026-04-29 09:33 | -11.10776 | 37.47076 | 40036 ft | 482 kts | 160° |
| 2026-04-29 09:33 | -11.16051 | 37.48946 | 40035 ft | 483 kts | 160° |
| 2026-04-29 09:34 | -11.22356 | 37.51180 | 40039 ft | 483 kts | 159° |
| 2026-04-29 09:34 | -11.28705 | 37.53432 | 40030 ft | 483 kts | 159° |
| 2026-04-29 09:35 | -11.35309 | 37.55779 | 40030 ft | 484 kts | 159° |
| 2026-04-29 09:35 | -11.41667 | 37.58037 | 40028 ft | 484 kts | 159° |
| 2026-04-29 09:36 | -11.46995 | 37.59930 | 40024 ft | 484 kts | 159° |
| 2026-04-29 09:36 | -11.50825 | 37.61292 | 40030 ft | 485 kts | 160° |
| 2026-04-29 09:37 | -11.57199 | 37.63558 | 40032 ft | 485 kts | 160° |
| 2026-04-29 09:37 | -11.63685 | 37.64925 | 40029 ft | 482 kts | 180° |
| 2026-04-29 09:38 | -11.67025 | 37.64599 | 40029 ft | 483 kts | 191° |
| 2026-04-29 09:38 | -11.70251 | 37.63660 | 40026 ft | 482 kts | 199° |
| 2026-04-29 09:38 | -11.76526 | 37.61202 | 40029 ft | 483 kts | 200° |
| 2026-04-29 09:39 | -11.82883 | 37.59007 | 40035 ft | 483 kts | 196° |
| 2026-04-29 09:39 | -11.89263 | 37.56967 | 40037 ft | 484 kts | 196° |
| 2026-04-29 09:40 | -11.95682 | 37.54846 | 40039 ft | 486 kts | 197° |
| 2026-04-29 09:40 | -12.02093 | 37.52663 | 40037 ft | 487 kts | 198° |
| 2026-04-29 09:41 | -12.07447 | 37.50824 | 40033 ft | 488 kts | 198° |
| 2026-04-29 09:41 | -12.11680 | 37.49371 | 40031 ft | 489 kts | 198° |
| 2026-04-29 09:42 | -12.18092 | 37.47176 | 40037 ft | 489 kts | 198° |
| 2026-04-29 09:42 | -12.24559 | 37.44964 | 40040 ft | 490 kts | 197° |
| 2026-04-29 09:43 | -12.31036 | 37.42749 | 40037 ft | 491 kts | 198° |
| 2026-04-29 09:43 | -12.37526 | 37.40528 | 40032 ft | 492 kts | 198° |
| 2026-04-29 09:44 | -12.41756 | 37.39080 | 40033 ft | 493 kts | 198° |
| 2026-04-29 09:44 | -12.45387 | 37.37836 | 40029 ft | 493 kts | 198° |
| 2026-04-29 09:45 | -12.51886 | 37.35608 | 40028 ft | 493 kts | 197° |
| 2026-04-29 09:45 | -12.58387 | 37.33379 | 40027 ft | 492 kts | 198° |
| 2026-04-29 09:46 | -12.63786 | 37.31527 | 40034 ft | 492 kts | 198° |
| 2026-04-29 09:46 | -12.67860 | 37.30128 | 40024 ft | 492 kts | 198° |
| 2026-04-29 09:47 | -12.74350 | 37.27899 | 40033 ft | 492 kts | 198° |
| 2026-04-29 09:47 | -12.80834 | 37.25671 | 40031 ft | 491 kts | 198° |
| 2026-04-29 09:48 | -12.87276 | 37.23489 | 40021 ft | 491 kts | 198° |
| 2026-04-29 09:48 | -12.93773 | 37.21346 | 40029 ft | 490 kts | 197° |
| 2026-04-29 09:49 | -13.00266 | 37.19206 | 40030 ft | 490 kts | 197° |
| 2026-04-29 09:49 | -13.06750 | 37.17057 | 40042 ft | 490 kts | 198° |
| 2026-04-29 09:50 | -13.13192 | 37.14915 | 40035 ft | 490 kts | 197° |
| 2026-04-29 09:50 | -13.19673 | 37.12758 | 40041 ft | 490 kts | 198° |
| 2026-04-29 09:51 | -13.25058 | 37.10967 | 40035 ft | 490 kts | 198° |
| 2026-04-29 09:51 | -13.29099 | 37.09622 | 40050 ft | 490 kts | 198° |
| 2026-04-29 09:52 | -13.35536 | 37.07477 | 40042 ft | 490 kts | 198° |
| 2026-04-29 09:52 | -13.42026 | 37.05314 | 40053 ft | 490 kts | 198° |
| 2026-04-29 09:53 | -13.48510 | 37.03152 | 40054 ft | 490 kts | 198° |
| 2026-04-29 09:53 | -13.54996 | 37.00989 | 40064 ft | 490 kts | 198° |
| 2026-04-29 09:54 | -13.61484 | 36.98823 | 40063 ft | 490 kts | 198° |
| 2026-04-29 09:54 | -13.67923 | 36.96673 | 40059 ft | 490 kts | 198° |
| 2026-04-29 09:55 | -13.74421 | 36.94500 | 40057 ft | 490 kts | 198° |
| 2026-04-29 09:55 | -13.80911 | 36.92330 | 40058 ft | 490 kts | 199° |
| 2026-04-29 09:56 | -13.86304 | 36.90526 | 40069 ft | 490 kts | 199° |
| 2026-04-29 09:56 | -13.90792 | 36.89023 | 40061 ft | 490 kts | 198° |
| 2026-04-29 09:57 | -13.97236 | 36.86864 | 40061 ft | 490 kts | 199° |
| 2026-04-29 09:57 | -14.03725 | 36.84692 | 40070 ft | 490 kts | 198° |
| 2026-04-29 09:58 | -14.10219 | 36.82549 | 40069 ft | 490 kts | 198° |
| 2026-04-29 09:58 | -14.16713 | 36.80420 | 40072 ft | 490 kts | 198° |
| 2026-04-29 09:59 | -14.23157 | 36.78303 | 40070 ft | 489 kts | 198° |
| 2026-04-29 09:59 | -14.29640 | 36.76166 | 40076 ft | 489 kts | 199° |
| 2026-04-29 10:00 | -14.36121 | 36.74026 | 40094 ft | 489 kts | 198° |
| 2026-04-29 10:00 | -14.42597 | 36.71887 | 40087 ft | 488 kts | 198° |
| 2026-04-29 10:01 | -14.47974 | 36.70110 | 40086 ft | 488 kts | 198° |
| 2026-04-29 10:01 | -14.51990 | 36.68783 | 40087 ft | 488 kts | 198° |
| 2026-04-29 10:02 | -14.58448 | 36.66648 | 40087 ft | 488 kts | 198° |
| 2026-04-29 10:02 | -14.64910 | 36.64510 | 40094 ft | 487 kts | 198° |
| 2026-04-29 10:03 | -14.71370 | 36.62372 | 40097 ft | 487 kts | 198° |
| 2026-04-29 10:03 | -14.77775 | 36.60251 | 40100 ft | 487 kts | 199° |
| 2026-04-29 10:04 | -14.84224 | 36.58113 | 40099 ft | 486 kts | 198° |
| 2026-04-29 10:04 | -14.90673 | 36.55973 | 40103 ft | 486 kts | 199° |
| 2026-04-29 10:05 | -14.97111 | 36.53836 | 40111 ft | 486 kts | 198° |
| 2026-04-29 10:05 | -15.03510 | 36.51713 | 40119 ft | 486 kts | 199° |
| 2026-04-29 10:06 | -15.08899 | 36.49922 | 40132 ft | 486 kts | 199° |
| 2026-04-29 10:06 | -15.13072 | 36.48534 | 40126 ft | 485 kts | 198° |
| 2026-04-29 10:07 | -15.19500 | 36.46395 | 40119 ft | 485 kts | 199° |
| 2026-04-29 10:07 | -15.25920 | 36.44258 | 40136 ft | 484 kts | 199° |
| 2026-04-29 10:08 | -15.32286 | 36.42138 | 40130 ft | 484 kts | 198° |
| 2026-04-29 10:08 | -15.38697 | 36.40001 | 40140 ft | 483 kts | 199° |
| 2026-04-29 10:09 | -15.43651 | 36.38349 | 40148 ft | 483 kts | 198° |
| 2026-04-29 10:09 | -15.50084 | 36.36203 | 40148 ft | 483 kts | 199° |
| 2026-04-29 10:10 | -15.55540 | 36.34381 | 40148 ft | 483 kts | 199° |
| 2026-04-29 10:10 | -15.61671 | 36.32334 | 40158 ft | 483 kts | 198° |
| 2026-04-29 10:11 | -15.66984 | 36.30557 | 40153 ft | 483 kts | 198° |
| 2026-04-29 10:11 | -15.71446 | 36.29065 | 40159 ft | 483 kts | 199° |
| 2026-04-29 10:12 | -15.77844 | 36.26924 | 40154 ft | 484 kts | 199° |
| 2026-04-29 10:12 | -15.84249 | 36.24779 | 40164 ft | 484 kts | 199° |
| 2026-04-29 10:13 | -15.90659 | 36.22631 | 40155 ft | 484 kts | 199° |
| 2026-04-29 10:13 | -15.97062 | 36.20483 | 40152 ft | 484 kts | 199° |
| 2026-04-29 10:14 | -16.03421 | 36.18334 | 40156 ft | 484 kts | 199° |
| 2026-04-29 10:14 | -16.09820 | 36.16139 | 40148 ft | 484 kts | 199° |
| 2026-04-29 10:15 | -16.16215 | 36.13940 | 40147 ft | 484 kts | 199° |
| 2026-04-29 10:15 | -16.22601 | 36.11747 | 40145 ft | 484 kts | 199° |
| 2026-04-29 10:16 | -16.27915 | 36.09924 | 40136 ft | 484 kts | 199° |
| 2026-04-29 10:16 | -16.31328 | 36.08753 | 40134 ft | 484 kts | 199° |
| 2026-04-29 10:17 | -16.37679 | 36.06572 | 40129 ft | 484 kts | 199° |
| 2026-04-29 10:17 | -16.44066 | 36.04377 | 40134 ft | 484 kts | 199° |
| 2026-04-29 10:18 | -16.50447 | 36.02183 | 40130 ft | 484 kts | 199° |
| 2026-04-29 10:18 | -16.56843 | 35.99981 | 40131 ft | 484 kts | 199° |
| 2026-04-29 10:19 | -16.63188 | 35.97796 | 40127 ft | 484 kts | 199° |
| 2026-04-29 10:19 | -16.69581 | 35.95593 | 40127 ft | 484 kts | 199° |
| 2026-04-29 10:20 | -16.75978 | 35.93387 | 40115 ft | 484 kts | 199° |
| 2026-04-29 10:20 | -16.82376 | 35.91179 | 40120 ft | 484 kts | 199° |
| 2026-04-29 10:21 | -16.87689 | 35.89344 | 40117 ft | 484 kts | 199° |
| 2026-04-29 10:21 | -16.91926 | 35.87879 | 40108 ft | 484 kts | 199° |
| 2026-04-29 10:22 | -16.98284 | 35.85682 | 40106 ft | 484 kts | 199° |
| 2026-04-29 10:22 | -17.04688 | 35.83466 | 40117 ft | 484 kts | 199° |
| 2026-04-29 10:23 | -17.11094 | 35.81248 | 40110 ft | 485 kts | 199° |
| 2026-04-29 10:23 | -17.17500 | 35.79030 | 40114 ft | 485 kts | 199° |
| 2026-04-29 10:24 | -17.23904 | 35.76809 | 40108 ft | 485 kts | 199° |
| 2026-04-29 10:24 | -17.30317 | 35.74582 | 40112 ft | 485 kts | 199° |
| 2026-04-29 10:25 | -17.36716 | 35.72359 | 40101 ft | 485 kts | 199° |
| 2026-04-29 10:25 | -17.43077 | 35.70149 | 40111 ft | 484 kts | 199° |
| 2026-04-29 10:26 | -17.48432 | 35.68288 | 40096 ft | 484 kts | 199° |
| 2026-04-29 10:26 | -17.52508 | 35.66870 | 40097 ft | 484 kts | 200° |
| 2026-04-29 10:27 | -17.62108 | 35.63526 | 40089 ft | 484 kts | 200° |
| 2026-04-29 10:28 | -17.68510 | 35.61287 | 40071 ft | 484 kts | 200° |
| 2026-04-29 10:28 | -17.74884 | 35.59084 | 39975 ft | 486 kts | 199° |
| 2026-04-29 10:29 | -17.81351 | 35.56868 | 39786 ft | 490 kts | 199° |
| 2026-04-29 10:29 | -17.84563 | 35.55746 | 39925 ft | 483 kts | 199° |
| 2026-04-29 10:29 | -17.87736 | 35.54622 | 39985 ft | 480 kts | 199° |
| 2026-04-29 10:30 | -17.94055 | 35.52378 | 40089 ft | 479 kts | 200° |
| 2026-04-29 10:30 | -18.00390 | 35.50146 | 40074 ft | 481 kts | 199° |
| 2026-04-29 10:31 | -18.06753 | 35.47916 | 40079 ft | 482 kts | 199° |
| 2026-04-29 10:31 | -18.09529 | 35.46945 | 40076 ft | 483 kts | 199° |
| 2026-04-29 10:32 | -18.15909 | 35.44709 | 40084 ft | 484 kts | 199° |
| 2026-04-29 10:32 | -18.22310 | 35.42462 | 40084 ft | 485 kts | 199° |
| 2026-04-29 10:33 | -18.28725 | 35.40208 | 40083 ft | 486 kts | 199° |
| 2026-04-29 10:33 | -18.35143 | 35.37952 | 40069 ft | 487 kts | 200° |
| 2026-04-29 10:34 | -18.41574 | 35.35689 | 40076 ft | 487 kts | 199° |
| 2026-04-29 10:34 | -18.48006 | 35.33424 | 40078 ft | 487 kts | 200° |
| 2026-04-29 10:35 | -18.54399 | 35.31170 | 40085 ft | 487 kts | 200° |
| 2026-04-29 10:35 | -18.60826 | 35.28904 | 40087 ft | 487 kts | 199° |
| 2026-04-29 10:36 | -18.67247 | 35.26644 | 40085 ft | 486 kts | 199° |
| 2026-04-29 10:36 | -18.70291 | 35.25572 | 40075 ft | 486 kts | 199° |
| 2026-04-29 10:37 | -18.76709 | 35.23312 | 40093 ft | 485 kts | 199° |
| 2026-04-29 10:37 | -18.83113 | 35.21052 | 40074 ft | 485 kts | 199° |
| 2026-04-29 10:38 | -18.89455 | 35.18812 | 40076 ft | 484 kts | 200° |
| 2026-04-29 10:38 | -18.95848 | 35.16553 | 40091 ft | 483 kts | 200° |
| 2026-04-29 10:39 | -19.02237 | 35.14293 | 40088 ft | 483 kts | 200° |
| 2026-04-29 10:39 | -19.08614 | 35.12036 | 40105 ft | 482 kts | 200° |
| 2026-04-29 10:40 | -19.14973 | 35.09783 | 40104 ft | 482 kts | 200° |
| 2026-04-29 10:40 | -19.20264 | 35.07908 | 40090 ft | 482 kts | 200° |
| 2026-04-29 10:41 | -19.26623 | 35.05651 | 40104 ft | 482 kts | 200° |
| 2026-04-29 10:41 | -19.30769 | 35.04179 | 40098 ft | 481 kts | 200° |
| 2026-04-29 10:42 | -19.36074 | 35.02294 | 40116 ft | 481 kts | 200° |
| 2026-04-29 10:42 | -19.42407 | 35.00042 | 40104 ft | 481 kts | 200° |
| 2026-04-29 10:43 | -19.48755 | 34.97783 | 40108 ft | 481 kts | 200° |
| 2026-04-29 10:43 | -19.55109 | 34.95519 | 40098 ft | 482 kts | 200° |
| 2026-04-29 10:44 | -19.61465 | 34.93255 | 40109 ft | 481 kts | 200° |
| 2026-04-29 10:44 | -19.67805 | 34.90992 | 40104 ft | 481 kts | 200° |
| 2026-04-29 10:45 | -19.74149 | 34.88719 | 40103 ft | 480 kts | 202° |
| 2026-04-29 10:45 | -19.80213 | 34.85825 | 40090 ft | 476 kts | 214° |
| 2026-04-29 10:45 | -19.82834 | 34.83698 | 40102 ft | 473 kts | 225° |
| 2026-04-29 10:46 | -19.85129 | 34.81215 | 40126 ft | 470 kts | 228° |
| 2026-04-29 10:46 | -19.87411 | 34.78681 | 40121 ft | 471 kts | 226° |
| 2026-04-29 10:47 | -19.91937 | 34.74272 | 40123 ft | 471 kts | 221° |
| 2026-04-29 10:47 | -19.96969 | 34.69781 | 40114 ft | 473 kts | 221° |
| 2026-04-29 10:48 | -20.01965 | 34.65224 | 40120 ft | 474 kts | 223° |
| 2026-04-29 10:48 | -20.06912 | 34.60577 | 40113 ft | 474 kts | 223° |
| 2026-04-29 10:49 | -20.11837 | 34.55907 | 40107 ft | 475 kts | 223° |
| 2026-04-29 10:49 | -20.16776 | 34.51226 | 40116 ft | 475 kts | 223° |
| 2026-04-29 10:50 | -20.21713 | 34.46555 | 40121 ft | 475 kts | 223° |
| 2026-04-29 10:50 | -20.26646 | 34.41884 | 40120 ft | 474 kts | 223° |
| 2026-04-29 10:51 | -20.30368 | 34.38358 | 40118 ft | 473 kts | 223° |
| 2026-04-29 10:51 | -20.32777 | 34.36075 | 40118 ft | 473 kts | 223° |
| 2026-04-29 10:52 | -20.36658 | 34.32394 | 40124 ft | 472 kts | 222° |
| 2026-04-29 10:52 | -20.41564 | 34.27737 | 40119 ft | 472 kts | 223° |
| 2026-04-29 10:53 | -20.46439 | 34.23105 | 40112 ft | 471 kts | 223° |
| 2026-04-29 10:53 | -20.51326 | 34.18458 | 40118 ft | 471 kts | 223° |
| 2026-04-29 10:54 | -20.56222 | 34.13796 | 40119 ft | 470 kts | 223° |
| 2026-04-29 10:54 | -20.61073 | 34.09175 | 40121 ft | 470 kts | 223° |
| 2026-04-29 10:55 | -20.65950 | 34.04523 | 40121 ft | 470 kts | 223° |
| 2026-04-29 10:55 | -20.70827 | 33.99868 | 40119 ft | 470 kts | 223° |
| 2026-04-29 10:56 | -20.75808 | 33.95339 | 40124 ft | 470 kts | 220° |
| 2026-04-29 10:56 | -20.78354 | 33.93146 | 40124 ft | 470 kts | 220° |
| 2026-04-29 10:57 | -20.83464 | 33.88776 | 40125 ft | 470 kts | 220° |
| 2026-04-29 10:57 | -20.88559 | 33.84368 | 40127 ft | 470 kts | 220° |
| 2026-04-29 10:58 | -20.93626 | 33.79936 | 40130 ft | 470 kts | 220° |
| 2026-04-29 10:58 | -20.98690 | 33.75492 | 40126 ft | 470 kts | 220° |
| 2026-04-29 10:59 | -21.03751 | 33.71047 | 40125 ft | 470 kts | 220° |
| 2026-04-29 10:59 | -21.08806 | 33.66607 | 40130 ft | 470 kts | 220° |
| 2026-04-29 11:00 | -21.13838 | 33.62185 | 40127 ft | 470 kts | 220° |
| 2026-04-29 11:00 | -21.18885 | 33.57746 | 40132 ft | 470 kts | 220° |
| 2026-04-29 11:01 | -21.23941 | 33.53295 | 40130 ft | 470 kts | 220° |
| 2026-04-29 11:01 | -21.26217 | 33.51290 | 40128 ft | 469 kts | 220° |
| 2026-04-29 11:02 | -21.31323 | 33.46788 | 40134 ft | 468 kts | 221° |
| 2026-04-29 11:02 | -21.36354 | 33.42348 | 40125 ft | 468 kts | 221° |
| 2026-04-29 11:03 | -21.41372 | 33.37916 | 40127 ft | 466 kts | 221° |
| 2026-04-29 11:03 | -21.46349 | 33.33516 | 40128 ft | 466 kts | 221° |
| 2026-04-29 11:04 | -21.51345 | 33.29095 | 40129 ft | 465 kts | 221° |
| 2026-04-29 11:04 | -21.56332 | 33.24677 | 40133 ft | 464 kts | 221° |
| 2026-04-29 11:05 | -21.61313 | 33.20261 | 40131 ft | 463 kts | 221° |
| 2026-04-29 11:05 | -21.66283 | 33.15851 | 40134 ft | 463 kts | 221° |
| 2026-04-29 11:06 | -21.71244 | 33.11443 | 40136 ft | 463 kts | 221° |
| 2026-04-29 11:06 | -21.73398 | 33.09528 | 40133 ft | 463 kts | 221° |
| 2026-04-29 11:07 | -21.78451 | 33.05033 | 40134 ft | 463 kts | 221° |
| 2026-04-29 11:07 | -21.83384 | 33.00583 | 40137 ft | 462 kts | 221° |
| 2026-04-29 11:08 | -21.88305 | 32.96113 | 40141 ft | 462 kts | 221° |
| 2026-04-29 11:08 | -21.93226 | 32.91646 | 40141 ft | 463 kts | 221° |
| 2026-04-29 11:09 | -21.98151 | 32.87178 | 40149 ft | 462 kts | 221° |
| 2026-04-29 11:09 | -22.03044 | 32.82735 | 40143 ft | 462 kts | 221° |
| 2026-04-29 11:10 | -22.07968 | 32.78298 | 40144 ft | 462 kts | 221° |
| 2026-04-29 11:10 | -22.12928 | 32.73901 | 40142 ft | 461 kts | 221° |
| 2026-04-29 11:11 | -22.17891 | 32.69505 | 40145 ft | 461 kts | 221° |
| 2026-04-29 11:11 | -22.20486 | 32.67199 | 40143 ft | 461 kts | 221° |
| 2026-04-29 11:12 | -22.25395 | 32.62826 | 40146 ft | 460 kts | 221° |
| 2026-04-29 11:12 | -22.30340 | 32.58413 | 40156 ft | 460 kts | 221° |
| 2026-04-29 11:13 | -22.35271 | 32.54009 | 40151 ft | 460 kts | 221° |
| 2026-04-29 11:13 | -22.40204 | 32.49599 | 40151 ft | 459 kts | 221° |
| 2026-04-29 11:14 | -22.45094 | 32.45224 | 40153 ft | 459 kts | 221° |
| 2026-04-29 11:14 | -22.50010 | 32.40821 | 40153 ft | 458 kts | 221° |
| 2026-04-29 11:15 | -22.54914 | 32.36425 | 40167 ft | 458 kts | 221° |
| 2026-04-29 11:15 | -22.59815 | 32.32028 | 40165 ft | 458 kts | 221° |
| 2026-04-29 11:16 | -22.64716 | 32.27626 | 40185 ft | 457 kts | 222° |